sensor_id;sensor_type;location;lat;lon;timestamp;temperature;humidity
16863;DHT22;52193;48.216;-1.698;2023-05-07T00:01:24;20.80;97.80
16863;DHT22;52193;48.216;-1.698;2023-05-07T00:03:53;20.70;97.90
16863;DHT22;52193;48.216;-1.698;2023-05-07T00:06:19;20.70;97.90
16863;DHT22;52193;48.216;-1.698;2023-05-07T00:08:46;20.70;97.90
16863;DHT22;52193;48.216;-1.698;2023-05-07T00:11:13;20.60;97.90
16863;DHT22;52193;48.216;-1.698;2023-05-07T00:13:40;20.60;98.00
16863;DHT22;52193;48.216;-1.698;2023-05-07T00:16:07;20.60;98.10
16863;DHT22;52193;48.216;-1.698;2023-05-07T00:18:34;20.50;98.10
16863;DHT22;52193;48.216;-1.698;2023-05-07T00:21:03;20.50;98.20
16863;DHT22;52193;48.216;-1.698;2023-05-07T00:23:30;20.40;98.30
16863;DHT22;52193;48.216;-1.698;2023-05-07T00:25:57;20.40;98.30
16863;DHT22;52193;48.216;-1.698;2023-05-07T00:28:24;20.30;98.30
16863;DHT22;52193;48.216;-1.698;2023-05-07T00:30:50;20.30;98.40
16863;DHT22;52193;48.216;-1.698;2023-05-07T00:33:17;20.30;98.50
16863;DHT22;52193;48.216;-1.698;2023-05-07T00:35:46;20.30;98.50
16863;DHT22;52193;48.216;-1.698;2023-05-07T00:38:14;20.20;98.50
16863;DHT22;52193;48.216;-1.698;2023-05-07T00:40:41;20.20;98.60
16863;DHT22;52193;48.216;-1.698;2023-05-07T00:43:08;20.20;98.90
16863;DHT22;52193;48.216;-1.698;2023-05-07T00:45:35;20.20;98.70
16863;DHT22;52193;48.216;-1.698;2023-05-07T00:48:02;20.20;98.70
16863;DHT22;52193;48.216;-1.698;2023-05-07T00:50:31;20.10;98.80
16863;DHT22;52193;48.216;-1.698;2023-05-07T00:52:59;20.10;98.90
16863;DHT22;52193;48.216;-1.698;2023-05-07T00:55:28;20.10;98.90
16863;DHT22;52193;48.216;-1.698;2023-05-07T00:57:55;20.10;98.90
16863;DHT22;52193;48.216;-1.698;2023-05-07T01:00:22;20.10;98.90
16863;DHT22;52193;48.216;-1.698;2023-05-07T01:02:50;20.10;99.00
16863;DHT22;52193;48.216;-1.698;2023-05-07T01:05:18;20.00;99.00
16863;DHT22;52193;48.216;-1.698;2023-05-07T01:07:47;20.00;99.10
16863;DHT22;52193;48.216;-1.698;2023-05-07T01:10:15;19.90;99.20
16863;DHT22;52193;48.216;-1.698;2023-05-07T01:12:44;19.90;99.20
16863;DHT22;52193;48.216;-1.698;2023-05-07T01:15:12;19.90;99.20
16863;DHT22;52193;48.216;-1.698;2023-05-07T01:17:41;19.80;99.20
16863;DHT22;52193;48.216;-1.698;2023-05-07T01:20:09;19.90;99.30
16863;DHT22;52193;48.216;-1.698;2023-05-07T01:22:39;19.90;99.30
16863;DHT22;52193;48.216;-1.698;2023-05-07T01:25:07;19.90;99.30
16863;DHT22;52193;48.216;-1.698;2023-05-07T01:27:34;19.90;99.20
16863;DHT22;52193;48.216;-1.698;2023-05-07T01:30:02;19.90;99.40
16863;DHT22;52193;48.216;-1.698;2023-05-07T01:32:33;19.90;99.30
16863;DHT22;52193;48.216;-1.698;2023-05-07T01:35:01;19.90;99.30
16863;DHT22;52193;48.216;-1.698;2023-05-07T01:37:29;19.90;99.30
16863;DHT22;52193;48.216;-1.698;2023-05-07T01:39:57;19.80;99.30
16863;DHT22;52193;48.216;-1.698;2023-05-07T01:42:25;19.90;99.40
16863;DHT22;52193;48.216;-1.698;2023-05-07T01:44:52;19.90;99.40
16863;DHT22;52193;48.216;-1.698;2023-05-07T01:47:19;19.90;99.40
16863;DHT22;52193;48.216;-1.698;2023-05-07T01:49:47;19.90;99.40
16863;DHT22;52193;48.216;-1.698;2023-05-07T01:52:14;19.90;99.40
16863;DHT22;52193;48.216;-1.698;2023-05-07T01:54:41;19.80;99.30
16863;DHT22;52193;48.216;-1.698;2023-05-07T01:57:09;19.90;99.50
16863;DHT22;52193;48.216;-1.698;2023-05-07T01:59:36;19.90;99.40
16863;DHT22;52193;48.216;-1.698;2023-05-07T02:02:03;19.90;99.40
16863;DHT22;52193;48.216;-1.698;2023-05-07T02:04:30;19.90;99.40
16863;DHT22;52193;48.216;-1.698;2023-05-07T02:06:57;19.90;99.40
16863;DHT22;52193;48.216;-1.698;2023-05-07T02:09:24;20.00;99.40
16863;DHT22;52193;48.216;-1.698;2023-05-07T02:11:51;19.90;99.40
16863;DHT22;52193;48.216;-1.698;2023-05-07T02:14:19;20.00;99.40
16863;DHT22;52193;48.216;-1.698;2023-05-07T02:16:46;20.10;99.40
16863;DHT22;52193;48.216;-1.698;2023-05-07T02:19:13;20.00;99.30
16863;DHT22;52193;48.216;-1.698;2023-05-07T02:21:41;20.00;99.30
16863;DHT22;52193;48.216;-1.698;2023-05-07T02:24:08;20.00;99.30
16863;DHT22;52193;48.216;-1.698;2023-05-07T02:26:35;20.00;99.30
16863;DHT22;52193;48.216;-1.698;2023-05-07T02:29:02;20.00;99.40
16863;DHT22;52193;48.216;-1.698;2023-05-07T02:31:30;20.00;99.40
16863;DHT22;52193;48.216;-1.698;2023-05-07T02:33:59;20.00;99.40
16863;DHT22;52193;48.216;-1.698;2023-05-07T02:36:26;20.00;99.40
16863;DHT22;52193;48.216;-1.698;2023-05-07T02:38:53;20.00;99.30
16863;DHT22;52193;48.216;-1.698;2023-05-07T02:41:20;20.00;99.30
16863;DHT22;52193;48.216;-1.698;2023-05-07T02:43:47;20.00;99.40
16863;DHT22;52193;48.216;-1.698;2023-05-07T02:46:14;20.00;99.40
16863;DHT22;52193;48.216;-1.698;2023-05-07T02:48:42;20.00;99.40
16863;DHT22;52193;48.216;-1.698;2023-05-07T02:51:09;20.00;99.40
16863;DHT22;52193;48.216;-1.698;2023-05-07T02:53:36;20.00;99.50
16863;DHT22;52193;48.216;-1.698;2023-05-07T02:56:04;20.00;99.50
16863;DHT22;52193;48.216;-1.698;2023-05-07T02:58:32;20.10;99.50
16863;DHT22;52193;48.216;-1.698;2023-05-07T03:00:58;20.00;99.50
16863;DHT22;52193;48.216;-1.698;2023-05-07T03:03:25;20.00;99.50
16863;DHT22;52193;48.216;-1.698;2023-05-07T03:05:54;20.10;99.50
16863;DHT22;52193;48.216;-1.698;2023-05-07T03:08:21;20.00;99.50
16863;DHT22;52193;48.216;-1.698;2023-05-07T03:10:48;20.00;99.50
16863;DHT22;52193;48.216;-1.698;2023-05-07T03:13:15;20.00;99.60
16863;DHT22;52193;48.216;-1.698;2023-05-07T03:15:42;20.00;99.70
16863;DHT22;52193;48.216;-1.698;2023-05-07T03:18:09;20.00;99.70
16863;DHT22;52193;48.216;-1.698;2023-05-07T03:20:36;20.00;99.70
16863;DHT22;52193;48.216;-1.698;2023-05-07T03:23:04;20.00;99.70
16863;DHT22;52193;48.216;-1.698;2023-05-07T03:25:31;20.10;99.90
16863;DHT22;52193;48.216;-1.698;2023-05-07T03:27:59;20.00;99.70
16863;DHT22;52193;48.216;-1.698;2023-05-07T03:30:26;20.00;99.70
16863;DHT22;52193;48.216;-1.698;2023-05-07T03:32:52;20.10;99.80
16863;DHT22;52193;48.216;-1.698;2023-05-07T03:35:19;20.00;99.70
16863;DHT22;52193;48.216;-1.698;2023-05-07T03:37:46;20.00;99.80
16863;DHT22;52193;48.216;-1.698;2023-05-07T03:40:15;20.00;99.80
16863;DHT22;52193;48.216;-1.698;2023-05-07T03:42:42;20.00;99.80
16863;DHT22;52193;48.216;-1.698;2023-05-07T03:45:09;20.00;99.80
16863;DHT22;52193;48.216;-1.698;2023-05-07T03:47:36;19.90;99.80
16863;DHT22;52193;48.216;-1.698;2023-05-07T03:50:03;19.90;99.90
16863;DHT22;52193;48.216;-1.698;2023-05-07T03:52:30;19.90;99.90
16863;DHT22;52193;48.216;-1.698;2023-05-07T03:54:57;19.80;99.90
16863;DHT22;52193;48.216;-1.698;2023-05-07T03:57:25;19.90;99.90
16863;DHT22;52193;48.216;-1.698;2023-05-07T03:59:52;19.90;99.90
16863;DHT22;52193;48.216;-1.698;2023-05-07T04:02:19;19.80;99.90
16863;DHT22;52193;48.216;-1.698;2023-05-07T04:04:48;19.80;99.90
16863;DHT22;52193;48.216;-1.698;2023-05-07T04:07:15;19.80;99.90
16863;DHT22;52193;48.216;-1.698;2023-05-07T04:09:42;19.80;99.90
16863;DHT22;52193;48.216;-1.698;2023-05-07T04:12:09;19.70;99.90
16863;DHT22;52193;48.216;-1.698;2023-05-07T04:14:37;19.80;99.90
16863;DHT22;52193;48.216;-1.698;2023-05-07T04:17:04;19.80;99.90
16863;DHT22;52193;48.216;-1.698;2023-05-07T04:19:33;19.80;99.90
16863;DHT22;52193;48.216;-1.698;2023-05-07T04:22:00;19.70;99.90
16863;DHT22;52193;48.216;-1.698;2023-05-07T04:24:27;19.70;99.90
16863;DHT22;52193;48.216;-1.698;2023-05-07T04:26:54;19.60;99.90
16863;DHT22;52193;48.216;-1.698;2023-05-07T04:29:21;19.70;99.90
16863;DHT22;52193;48.216;-1.698;2023-05-07T04:31:49;19.60;99.90
16863;DHT22;52193;48.216;-1.698;2023-05-07T04:34:16;19.70;99.90
16863;DHT22;52193;48.216;-1.698;2023-05-07T04:36:43;19.70;99.90
16863;DHT22;52193;48.216;-1.698;2023-05-07T04:39:10;19.70;99.90
16863;DHT22;52193;48.216;-1.698;2023-05-07T04:41:37;19.70;99.90
16863;DHT22;52193;48.216;-1.698;2023-05-07T04:44:04;19.80;99.90
16863;DHT22;52193;48.216;-1.698;2023-05-07T04:46:31;19.80;99.90
16863;DHT22;52193;48.216;-1.698;2023-05-07T04:48:59;19.80;99.90
16863;DHT22;52193;48.216;-1.698;2023-05-07T04:51:26;19.80;99.90
16863;DHT22;52193;48.216;-1.698;2023-05-07T04:53:53;19.80;99.90
16863;DHT22;52193;48.216;-1.698;2023-05-07T04:56:20;19.80;99.90
16863;DHT22;52193;48.216;-1.698;2023-05-07T04:58:47;19.80;99.90
16863;DHT22;52193;48.216;-1.698;2023-05-07T05:01:14;19.80;99.90
16863;DHT22;52193;48.216;-1.698;2023-05-07T05:03:41;19.80;99.90
16863;DHT22;52193;48.216;-1.698;2023-05-07T05:06:09;19.80;99.90
16863;DHT22;52193;48.216;-1.698;2023-05-07T05:08:36;19.80;99.90
16863;DHT22;52193;48.216;-1.698;2023-05-07T05:11:03;19.90;99.90
16863;DHT22;52193;48.216;-1.698;2023-05-07T05:13:30;19.90;99.90
16863;DHT22;52193;48.216;-1.698;2023-05-07T05:15:57;19.90;99.90
16863;DHT22;52193;48.216;-1.698;2023-05-07T05:18:24;19.80;99.90
16863;DHT22;52193;48.216;-1.698;2023-05-07T05:20:51;19.90;99.90
16863;DHT22;52193;48.216;-1.698;2023-05-07T05:23:19;19.80;99.90
16863;DHT22;52193;48.216;-1.698;2023-05-07T05:25:46;19.80;99.90
16863;DHT22;52193;48.216;-1.698;2023-05-07T05:28:13;19.90;99.90
16863;DHT22;52193;48.216;-1.698;2023-05-07T05:30:40;19.90;99.90
16863;DHT22;52193;48.216;-1.698;2023-05-07T05:33:07;19.90;99.90
16863;DHT22;52193;48.216;-1.698;2023-05-07T05:35:34;19.90;99.90
16863;DHT22;52193;48.216;-1.698;2023-05-07T05:38:01;19.90;99.90
16863;DHT22;52193;48.216;-1.698;2023-05-07T05:40:30;20.00;99.90
16863;DHT22;52193;48.216;-1.698;2023-05-07T05:42:57;20.00;99.90
16863;DHT22;52193;48.216;-1.698;2023-05-07T05:45:24;20.00;99.90
16863;DHT22;52193;48.216;-1.698;2023-05-07T05:47:51;20.00;99.90
16863;DHT22;52193;48.216;-1.698;2023-05-07T05:50:18;20.10;99.90
16863;DHT22;52193;48.216;-1.698;2023-05-07T05:52:45;20.10;99.90
16863;DHT22;52193;48.216;-1.698;2023-05-07T05:55:12;20.10;99.90
16863;DHT22;52193;48.216;-1.698;2023-05-07T05:57:40;20.10;99.90
16863;DHT22;52193;48.216;-1.698;2023-05-07T06:00:08;20.20;99.90
16863;DHT22;52193;48.216;-1.698;2023-05-07T06:02:35;20.20;99.90
16863;DHT22;52193;48.216;-1.698;2023-05-07T06:05:03;20.20;99.90
16863;DHT22;52193;48.216;-1.698;2023-05-07T06:07:30;20.20;99.90
16863;DHT22;52193;48.216;-1.698;2023-05-07T06:09:57;20.20;99.90
16863;DHT22;52193;48.216;-1.698;2023-05-07T06:12:24;20.20;99.90
16863;DHT22;52193;48.216;-1.698;2023-05-07T06:14:52;20.20;99.90
16863;DHT22;52193;48.216;-1.698;2023-05-07T06:17:19;20.20;99.90
16863;DHT22;52193;48.216;-1.698;2023-05-07T06:19:46;20.20;99.90
16863;DHT22;52193;48.216;-1.698;2023-05-07T06:22:13;20.20;99.90
16863;DHT22;52193;48.216;-1.698;2023-05-07T06:24:40;20.30;99.90
16863;DHT22;52193;48.216;-1.698;2023-05-07T06:27:07;20.30;99.90
16863;DHT22;52193;48.216;-1.698;2023-05-07T06:29:34;20.30;99.90
16863;DHT22;52193;48.216;-1.698;2023-05-07T06:32:08;20.30;99.90
16863;DHT22;52193;48.216;-1.698;2023-05-07T06:34:36;20.30;99.90
16863;DHT22;52193;48.216;-1.698;2023-05-07T06:37:03;20.30;99.90
16863;DHT22;52193;48.216;-1.698;2023-05-07T06:39:30;20.30;99.90
16863;DHT22;52193;48.216;-1.698;2023-05-07T06:41:57;20.30;99.90
16863;DHT22;52193;48.216;-1.698;2023-05-07T06:44:24;20.30;99.90
16863;DHT22;52193;48.216;-1.698;2023-05-07T06:46:51;20.30;99.90
16863;DHT22;52193;48.216;-1.698;2023-05-07T06:49:19;20.30;99.90
16863;DHT22;52193;48.216;-1.698;2023-05-07T06:51:46;20.30;99.90
16863;DHT22;52193;48.216;-1.698;2023-05-07T06:54:13;20.30;99.90
16863;DHT22;52193;48.216;-1.698;2023-05-07T06:56:40;20.20;99.90
16863;DHT22;52193;48.216;-1.698;2023-05-07T06:59:08;20.30;99.90
16863;DHT22;52193;48.216;-1.698;2023-05-07T07:01:35;20.30;99.90
16863;DHT22;52193;48.216;-1.698;2023-05-07T07:04:02;20.20;99.90
16863;DHT22;52193;48.216;-1.698;2023-05-07T07:06:30;20.20;99.90
16863;DHT22;52193;48.216;-1.698;2023-05-07T07:08:57;20.20;99.90
16863;DHT22;52193;48.216;-1.698;2023-05-07T07:11:24;20.30;99.90
16863;DHT22;52193;48.216;-1.698;2023-05-07T07:13:51;20.30;99.90
16863;DHT22;52193;48.216;-1.698;2023-05-07T07:16:20;20.40;99.90
16863;DHT22;52193;48.216;-1.698;2023-05-07T07:18:46;20.40;99.90
16863;DHT22;52193;48.216;-1.698;2023-05-07T07:21:13;20.40;99.90
16863;DHT22;52193;48.216;-1.698;2023-05-07T07:23:42;20.50;99.90
16863;DHT22;52193;48.216;-1.698;2023-05-07T07:26:08;20.50;99.90
16863;DHT22;52193;48.216;-1.698;2023-05-07T07:28:42;20.60;99.90
16863;DHT22;52193;48.216;-1.698;2023-05-07T07:31:09;20.70;99.90
16863;DHT22;52193;48.216;-1.698;2023-05-07T07:33:36;20.70;99.90
16863;DHT22;52193;48.216;-1.698;2023-05-07T07:36:04;20.70;99.90
16863;DHT22;52193;48.216;-1.698;2023-05-07T07:38:32;20.70;99.90
16863;DHT22;52193;48.216;-1.698;2023-05-07T07:41:00;20.80;99.90
16863;DHT22;52193;48.216;-1.698;2023-05-07T07:43:27;20.80;99.90
16863;DHT22;52193;48.216;-1.698;2023-05-07T07:45:54;20.80;99.90
16863;DHT22;52193;48.216;-1.698;2023-05-07T07:48:21;20.90;99.90
16863;DHT22;52193;48.216;-1.698;2023-05-07T07:50:49;20.80;99.90
16863;DHT22;52193;48.216;-1.698;2023-05-07T07:53:16;20.80;99.90
16863;DHT22;52193;48.216;-1.698;2023-05-07T07:55:44;20.80;99.90
16863;DHT22;52193;48.216;-1.698;2023-05-07T07:58:12;20.90;99.90
16863;DHT22;52193;48.216;-1.698;2023-05-07T08:00:39;20.90;99.90
16863;DHT22;52193;48.216;-1.698;2023-05-07T08:03:08;20.80;99.90
16863;DHT22;52193;48.216;-1.698;2023-05-07T08:05:35;20.80;99.90
16863;DHT22;52193;48.216;-1.698;2023-05-07T08:08:04;20.90;99.90
16863;DHT22;52193;48.216;-1.698;2023-05-07T08:10:31;20.90;99.90
16863;DHT22;52193;48.216;-1.698;2023-05-07T08:13:00;21.00;99.90
16863;DHT22;52193;48.216;-1.698;2023-05-07T08:15:30;21.00;99.90
16863;DHT22;52193;48.216;-1.698;2023-05-07T08:17:58;21.00;99.90
16863;DHT22;52193;48.216;-1.698;2023-05-07T08:20:25;21.10;99.90
16863;DHT22;52193;48.216;-1.698;2023-05-07T08:22:52;21.10;99.90
16863;DHT22;52193;48.216;-1.698;2023-05-07T08:25:19;21.00;99.90
16863;DHT22;52193;48.216;-1.698;2023-05-07T08:27:46;21.10;99.90
16863;DHT22;52193;48.216;-1.698;2023-05-07T08:30:14;21.20;99.80
16863;DHT22;52193;48.216;-1.698;2023-05-07T08:32:42;21.30;99.70
16863;DHT22;52193;48.216;-1.698;2023-05-07T08:35:09;21.20;99.70
16863;DHT22;52193;48.216;-1.698;2023-05-07T08:37:36;21.30;99.60
16863;DHT22;52193;48.216;-1.698;2023-05-07T08:40:04;21.40;99.50
16863;DHT22;52193;48.216;-1.698;2023-05-07T08:42:31;21.40;99.40
16863;DHT22;52193;48.216;-1.698;2023-05-07T08:45:03;21.50;99.30
16863;DHT22;52193;48.216;-1.698;2023-05-07T08:47:40;21.60;99.30
16863;DHT22;52193;48.216;-1.698;2023-05-07T08:50:09;21.70;99.20
16863;DHT22;52193;48.216;-1.698;2023-05-07T08:52:36;21.70;99.00
16863;DHT22;52193;48.216;-1.698;2023-05-07T08:55:04;21.80;99.00
16863;DHT22;52193;48.216;-1.698;2023-05-07T08:57:31;21.80;98.90
16863;DHT22;52193;48.216;-1.698;2023-05-07T08:59:58;21.80;98.80
16863;DHT22;52193;48.216;-1.698;2023-05-07T09:02:25;21.90;98.80
16863;DHT22;52193;48.216;-1.698;2023-05-07T09:04:52;21.90;98.80
16863;DHT22;52193;48.216;-1.698;2023-05-07T09:07:21;22.10;98.70
16863;DHT22;52193;48.216;-1.698;2023-05-07T09:09:49;22.20;98.70
16863;DHT22;52193;48.216;-1.698;2023-05-07T09:12:17;22.40;98.60
16863;DHT22;52193;48.216;-1.698;2023-05-07T09:14:45;22.30;98.30
16863;DHT22;52193;48.216;-1.698;2023-05-07T09:17:12;22.30;98.30
16863;DHT22;52193;48.216;-1.698;2023-05-07T09:19:39;22.40;98.30
16863;DHT22;52193;48.216;-1.698;2023-05-07T09:22:06;22.50;98.30
16863;DHT22;52193;48.216;-1.698;2023-05-07T09:24:35;22.60;98.20
16863;DHT22;52193;48.216;-1.698;2023-05-07T09:27:03;22.70;98.10
16863;DHT22;52193;48.216;-1.698;2023-05-07T09:29:31;22.70;98.00
16863;DHT22;52193;48.216;-1.698;2023-05-07T09:32:01;22.70;97.80
16863;DHT22;52193;48.216;-1.698;2023-05-07T09:34:28;22.50;97.60
16863;DHT22;52193;48.216;-1.698;2023-05-07T09:36:56;22.60;97.80
16863;DHT22;52193;48.216;-1.698;2023-05-07T09:39:23;22.60;97.60
16863;DHT22;52193;48.216;-1.698;2023-05-07T09:41:51;22.70;97.50
16863;DHT22;52193;48.216;-1.698;2023-05-07T09:44:20;22.80;97.50
16863;DHT22;52193;48.216;-1.698;2023-05-07T09:46:53;22.80;97.40
16863;DHT22;52193;48.216;-1.698;2023-05-07T09:49:22;22.90;97.40
16863;DHT22;52193;48.216;-1.698;2023-05-07T09:51:51;23.00;97.40
16863;DHT22;52193;48.216;-1.698;2023-05-07T09:54:18;23.00;97.30
16863;DHT22;52193;48.216;-1.698;2023-05-07T09:56:46;23.10;97.30
16863;DHT22;52193;48.216;-1.698;2023-05-07T09:59:16;23.20;97.40
16863;DHT22;52193;48.216;-1.698;2023-05-07T10:01:44;23.20;97.30
16863;DHT22;52193;48.216;-1.698;2023-05-07T10:04:12;23.30;97.30
16863;DHT22;52193;48.216;-1.698;2023-05-07T10:06:39;23.30;97.20
16863;DHT22;52193;48.216;-1.698;2023-05-07T10:09:08;23.40;97.20
16863;DHT22;52193;48.216;-1.698;2023-05-07T10:11:37;23.40;97.10
16863;DHT22;52193;48.216;-1.698;2023-05-07T10:14:04;23.50;97.10
16863;DHT22;52193;48.216;-1.698;2023-05-07T10:16:35;23.60;97.30
16863;DHT22;52193;48.216;-1.698;2023-05-07T10:19:03;23.70;97.00
16863;DHT22;52193;48.216;-1.698;2023-05-07T10:21:30;23.70;96.80
16863;DHT22;52193;48.216;-1.698;2023-05-07T10:23:59;23.80;96.60
16863;DHT22;52193;48.216;-1.698;2023-05-07T10:26:29;23.80;96.50
16863;DHT22;52193;48.216;-1.698;2023-05-07T10:29:03;23.80;96.10
16863;DHT22;52193;48.216;-1.698;2023-05-07T10:31:51;23.90;96.00
16863;DHT22;52193;48.216;-1.698;2023-05-07T10:34:24;23.80;95.70
16863;DHT22;52193;48.216;-1.698;2023-05-07T10:36:53;23.80;95.70
16863;DHT22;52193;48.216;-1.698;2023-05-07T10:39:21;23.70;95.50
16863;DHT22;52193;48.216;-1.698;2023-05-07T10:41:48;23.80;95.50
16863;DHT22;52193;48.216;-1.698;2023-05-07T10:44:25;23.70;95.50
16863;DHT22;52193;48.216;-1.698;2023-05-07T10:47:06;23.60;95.40
16863;DHT22;52193;48.216;-1.698;2023-05-07T10:49:35;23.50;95.20
16863;DHT22;52193;48.216;-1.698;2023-05-07T10:52:12;23.40;95.30
16863;DHT22;52193;48.216;-1.698;2023-05-07T10:54:40;23.30;95.40
16863;DHT22;52193;48.216;-1.698;2023-05-07T10:57:35;23.30;95.40
16863;DHT22;52193;48.216;-1.698;2023-05-07T11:00:02;23.30;95.40
16863;DHT22;52193;48.216;-1.698;2023-05-07T11:03:05;23.30;95.30
16863;DHT22;52193;48.216;-1.698;2023-05-07T11:05:33;23.30;95.20
16863;DHT22;52193;48.216;-1.698;2023-05-07T11:08:02;23.20;95.20
16863;DHT22;52193;48.216;-1.698;2023-05-07T11:10:48;23.10;95.00
16863;DHT22;52193;48.216;-1.698;2023-05-07T11:13:16;23.00;94.90
16863;DHT22;52193;48.216;-1.698;2023-05-07T11:15:45;23.00;95.00
16863;DHT22;52193;48.216;-1.698;2023-05-07T11:18:14;22.80;94.80
16863;DHT22;52193;48.216;-1.698;2023-05-07T11:20:46;22.90;94.80
16863;DHT22;52193;48.216;-1.698;2023-05-07T11:26:18;23.30;94.80
16863;DHT22;52193;48.216;-1.698;2023-05-07T11:28:45;23.50;94.60
16863;DHT22;52193;48.216;-1.698;2023-05-07T11:31:12;23.70;94.60
16863;DHT22;52193;48.216;-1.698;2023-05-07T11:33:41;23.70;94.40
16863;DHT22;52193;48.216;-1.698;2023-05-07T11:36:10;23.70;94.30
16863;DHT22;52193;48.216;-1.698;2023-05-07T11:38:37;23.80;94.40
16863;DHT22;52193;48.216;-1.698;2023-05-07T11:41:04;23.80;94.30
16863;DHT22;52193;48.216;-1.698;2023-05-07T11:43:32;23.70;94.30
16863;DHT22;52193;48.216;-1.698;2023-05-07T11:46:09;23.80;94.40
16863;DHT22;52193;48.216;-1.698;2023-05-07T11:48:36;23.80;94.40
16863;DHT22;52193;48.216;-1.698;2023-05-07T11:51:05;23.90;94.20
16863;DHT22;52193;48.216;-1.698;2023-05-07T11:53:39;23.90;94.10
16863;DHT22;52193;48.216;-1.698;2023-05-07T11:56:06;24.10;94.10
16863;DHT22;52193;48.216;-1.698;2023-05-07T11:58:34;24.30;94.00
16863;DHT22;52193;48.216;-1.698;2023-05-07T12:01:02;24.60;93.90
16863;DHT22;52193;48.216;-1.698;2023-05-07T12:03:28;24.90;93.80
16863;DHT22;52193;48.216;-1.698;2023-05-07T12:05:55;25.20;93.70
16863;DHT22;52193;48.216;-1.698;2023-05-07T12:08:24;25.70;93.80
16863;DHT22;52193;48.216;-1.698;2023-05-07T12:10:51;25.90;93.10
16863;DHT22;52193;48.216;-1.698;2023-05-07T12:13:19;26.10;92.90
16863;DHT22;52193;48.216;-1.698;2023-05-07T12:15:46;26.00;92.60
16863;DHT22;52193;48.216;-1.698;2023-05-07T12:18:17;25.90;92.70
16863;DHT22;52193;48.216;-1.698;2023-05-07T12:20:44;25.90;92.70
16863;DHT22;52193;48.216;-1.698;2023-05-07T12:23:12;25.80;92.40
16863;DHT22;52193;48.216;-1.698;2023-05-07T12:25:42;25.80;92.30
16863;DHT22;52193;48.216;-1.698;2023-05-07T12:28:13;25.90;92.30
16863;DHT22;52193;48.216;-1.698;2023-05-07T12:30:40;26.00;92.30
16863;DHT22;52193;48.216;-1.698;2023-05-07T12:33:07;26.10;92.10
16863;DHT22;52193;48.216;-1.698;2023-05-07T12:35:37;26.20;92.00
16863;DHT22;52193;48.216;-1.698;2023-05-07T12:38:08;26.30;92.00
16863;DHT22;52193;48.216;-1.698;2023-05-07T12:40:40;26.20;91.90
16863;DHT22;52193;48.216;-1.698;2023-05-07T12:43:08;26.30;91.80
16863;DHT22;52193;48.216;-1.698;2023-05-07T12:45:41;26.20;91.80
16863;DHT22;52193;48.216;-1.698;2023-05-07T12:48:10;26.30;91.60
16863;DHT22;52193;48.216;-1.698;2023-05-07T12:50:37;26.30;91.50
16863;DHT22;52193;48.216;-1.698;2023-05-07T12:53:05;26.40;91.50
16863;DHT22;52193;48.216;-1.698;2023-05-07T12:55:42;26.30;91.40
16863;DHT22;52193;48.216;-1.698;2023-05-07T12:58:18;26.30;91.40
16863;DHT22;52193;48.216;-1.698;2023-05-07T13:00:47;26.20;91.50
16863;DHT22;52193;48.216;-1.698;2023-05-07T13:03:21;26.40;91.50
16863;DHT22;52193;48.216;-1.698;2023-05-07T13:05:49;27.40;91.00
16863;DHT22;52193;48.216;-1.698;2023-05-07T13:08:35;27.70;90.60
16863;DHT22;52193;48.216;-1.698;2023-05-07T13:11:04;27.60;90.60
16863;DHT22;52193;48.216;-1.698;2023-05-07T13:13:32;28.20;90.50
16863;DHT22;52193;48.216;-1.698;2023-05-07T13:15:59;28.60;89.30
16863;DHT22;52193;48.216;-1.698;2023-05-07T13:18:28;28.40;89.10
16863;DHT22;52193;48.216;-1.698;2023-05-07T13:20:55;28.70;88.80
16863;DHT22;52193;48.216;-1.698;2023-05-07T13:23:23;28.70;88.70
16863;DHT22;52193;48.216;-1.698;2023-05-07T13:25:50;28.60;88.40
16863;DHT22;52193;48.216;-1.698;2023-05-07T13:28:20;28.80;88.00
16863;DHT22;52193;48.216;-1.698;2023-05-07T13:30:48;29.00;87.50
16863;DHT22;52193;48.216;-1.698;2023-05-07T13:33:15;29.70;86.30
16863;DHT22;52193;48.216;-1.698;2023-05-07T13:35:42;31.50;84.40
16863;DHT22;52193;48.216;-1.698;2023-05-07T13:38:09;31.30;82.90
16863;DHT22;52193;48.216;-1.698;2023-05-07T13:40:36;30.80;83.50
16863;DHT22;52193;48.216;-1.698;2023-05-07T13:43:03;30.30;84.20
16863;DHT22;52193;48.216;-1.698;2023-05-07T13:45:31;30.00;84.70
16863;DHT22;52193;48.216;-1.698;2023-05-07T13:47:58;30.20;83.90
16863;DHT22;52193;48.216;-1.698;2023-05-07T13:50:25;31.60;83.40
16863;DHT22;52193;48.216;-1.698;2023-05-07T13:52:55;34.30;79.80
16863;DHT22;52193;48.216;-1.698;2023-05-07T13:55:23;36.20;76.40
16863;DHT22;52193;48.216;-1.698;2023-05-07T13:57:55;36.90;74.50
16863;DHT22;52193;48.216;-1.698;2023-05-07T14:00:23;36.10;74.40
16863;DHT22;52193;48.216;-1.698;2023-05-07T14:02:51;35.00;75.80
16863;DHT22;52193;48.216;-1.698;2023-05-07T14:05:18;34.40;75.20
16863;DHT22;52193;48.216;-1.698;2023-05-07T14:07:45;33.80;75.70
16863;DHT22;52193;48.216;-1.698;2023-05-07T14:10:13;32.90;76.20
16863;DHT22;52193;48.216;-1.698;2023-05-07T14:12:40;32.30;77.00
16863;DHT22;52193;48.216;-1.698;2023-05-07T14:15:08;32.00;77.10
16863;DHT22;52193;48.216;-1.698;2023-05-07T14:17:35;31.70;77.40
16863;DHT22;52193;48.216;-1.698;2023-05-07T14:20:03;31.30;77.40
16863;DHT22;52193;48.216;-1.698;2023-05-07T14:22:31;31.00;78.00
16863;DHT22;52193;48.216;-1.698;2023-05-07T14:24:58;30.70;79.10
16863;DHT22;52193;48.216;-1.698;2023-05-07T14:27:25;30.50;79.40
16863;DHT22;52193;48.216;-1.698;2023-05-07T14:29:52;30.30;78.80
16863;DHT22;52193;48.216;-1.698;2023-05-07T14:32:19;30.20;79.30
16863;DHT22;52193;48.216;-1.698;2023-05-07T14:34:46;30.00;79.70
16863;DHT22;52193;48.216;-1.698;2023-05-07T14:37:14;29.70;79.90
16863;DHT22;52193;48.216;-1.698;2023-05-07T14:39:41;29.50;80.20
16863;DHT22;52193;48.216;-1.698;2023-05-07T14:42:08;29.20;80.30
16863;DHT22;52193;48.216;-1.698;2023-05-07T14:44:35;28.80;80.50
16863;DHT22;52193;48.216;-1.698;2023-05-07T14:47:02;28.70;80.60
16863;DHT22;52193;48.216;-1.698;2023-05-07T14:49:29;28.60;81.00
16863;DHT22;52193;48.216;-1.698;2023-05-07T14:51:57;28.50;81.30
16863;DHT22;52193;48.216;-1.698;2023-05-07T14:54:27;28.50;81.30
16863;DHT22;52193;48.216;-1.698;2023-05-07T14:56:54;28.30;81.50
16863;DHT22;52193;48.216;-1.698;2023-05-07T14:59:21;28.10;81.50
16863;DHT22;52193;48.216;-1.698;2023-05-07T15:01:50;28.10;81.50
16863;DHT22;52193;48.216;-1.698;2023-05-07T15:04:17;28.00;81.40
16863;DHT22;52193;48.216;-1.698;2023-05-07T15:06:44;28.00;81.20
16863;DHT22;52193;48.216;-1.698;2023-05-07T15:09:11;28.30;81.20
16863;DHT22;52193;48.216;-1.698;2023-05-07T15:11:40;28.50;81.50
16863;DHT22;52193;48.216;-1.698;2023-05-07T15:14:07;28.70;81.30
16863;DHT22;52193;48.216;-1.698;2023-05-07T15:16:34;29.10;81.20
16863;DHT22;52193;48.216;-1.698;2023-05-07T15:19:01;29.60;81.00
16863;DHT22;52193;48.216;-1.698;2023-05-07T15:21:27;30.20;80.90
16863;DHT22;52193;48.216;-1.698;2023-05-07T15:23:56;30.90;79.90